Terminal Aerodrome Forecast
Issued by NWS

Home | Current Version | Previous Version | Graphics & Text | Print | Product List | Glossary On
Versions: 1 2 3 4 5 6 7 8 9 10 11 12 13 14
000
FTUS43 KMPX 100500
TAFRNH
TAF
KRNH 100520Z 1006/1106 VRB02KT P6SM SKC
     FM101500 18007KT P6SM FEW040 SCT120
     FM102100 18009KT P6SM SCT045 BKN100
     FM110200 15005KT P6SM BKN050 OVC080=

USA.gov is the U.S. government's official web portal to all federal, state and local government web resources and services.